sensor_id;sensor_type;location;lat;lon;timestamp;pressure;altitude;pressure_sealevel;temperature;humidity
7058;BME280;3570;43.080;25.628;2022-07-25T00:00:31;-20106.84;;;22.52;100.00
7058;BME280;3570;43.080;25.628;2022-07-25T00:03:15;-20105.53;;;22.47;100.00
7058;BME280;3570;43.080;25.628;2022-07-25T00:05:59;-20117.13;;;22.87;100.00
7058;BME280;3570;43.080;25.628;2022-07-25T00:08:43;-20130.41;;;23.33;100.00
7058;BME280;3570;43.080;25.628;2022-07-25T00:11:27;-20135.47;;;23.51;100.00
7058;BME280;3570;43.080;25.628;2022-07-25T00:14:11;-20143.72;;;23.80;100.00
7058;BME280;3570;43.080;25.628;2022-07-25T00:16:54;-20130.00;;;23.32;100.00
7058;BME280;3570;43.080;25.628;2022-07-25T00:19:39;-20116.81;;;22.86;100.00
7058;BME280;3570;43.080;25.628;2022-07-25T00:22:23;-20109.03;;;22.59;100.00
7058;BME280;3570;43.080;25.628;2022-07-25T00:25:08;-20110.47;;;22.64;100.00
7058;BME280;3570;43.080;25.628;2022-07-25T00:27:52;-20129.69;;;23.31;100.00
7058;BME280;3570;43.080;25.628;2022-07-25T00:30:36;-20144.72;;;23.83;100.00
7058;BME280;3570;43.080;25.628;2022-07-25T00:33:20;-20147.47;;;23.93;100.00
7058;BME280;3570;43.080;25.628;2022-07-25T00:36:06;-20145.03;;;23.84;100.00
7058;BME280;3570;43.080;25.628;2022-07-25T00:38:50;-20163.34;;;24.48;100.00
7058;BME280;3570;43.080;25.628;2022-07-25T00:41:34;-20167.97;;;24.64;100.00
7058;BME280;3570;43.080;25.628;2022-07-25T00:44:29;-20163.66;;;24.49;100.00
7058;BME280;3570;43.080;25.628;2022-07-25T00:47:14;-20156.13;;;24.23;100.00
7058;BME280;3570;43.080;25.628;2022-07-25T00:49:58;-20141.97;;;23.74;100.00
7058;BME280;3570;43.080;25.628;2022-07-25T00:52:42;-20122.91;;;23.07;100.00
7058;BME280;3570;43.080;25.628;2022-07-25T00:55:28;-20113.94;;;22.76;100.00
7058;BME280;3570;43.080;25.628;2022-07-25T00:58:12;-20112.94;;;22.73;100.00
7058;BME280;3570;43.080;25.628;2022-07-25T01:00:57;-20106.84;;;22.52;100.00
7058;BME280;3570;43.080;25.628;2022-07-25T01:03:42;-20104.69;;;22.44;100.00
7058;BME280;3570;43.080;25.628;2022-07-25T01:06:26;-20103.09;;;22.38;100.00
7058;BME280;3570;43.080;25.628;2022-07-25T01:09:10;-20124.19;;;23.12;100.00
7058;BME280;3570;43.080;25.628;2022-07-25T01:11:55;-20135.91;;;23.53;100.00
7058;BME280;3570;43.080;25.628;2022-07-25T01:14:39;-20139.53;;;23.65;100.00
7058;BME280;3570;43.080;25.628;2022-07-25T01:17:24;-20141.56;;;23.72;100.00
7058;BME280;3570;43.080;25.628;2022-07-25T01:20:15;-20130.28;;;23.33;100.00
7058;BME280;3570;43.080;25.628;2022-07-25T01:23:00;-20114.94;;;22.80;100.00
7058;BME280;3570;43.080;25.628;2022-07-25T01:25:44;-20107.00;;;22.52;100.00
7058;BME280;3570;43.080;25.628;2022-07-25T01:28:29;-20101.22;;;22.32;100.00
7058;BME280;3570;43.080;25.628;2022-07-25T01:31:14;-20096.59;;;22.16;100.00
7058;BME280;3570;43.080;25.628;2022-07-25T01:33:58;-20100.06;;;22.28;100.00
7058;BME280;3570;43.080;25.628;2022-07-25T01:36:42;-20098.16;;;22.21;100.00
7058;BME280;3570;43.080;25.628;2022-07-25T01:39:25;-20101.78;;;22.34;100.00
7058;BME280;3570;43.080;25.628;2022-07-25T01:42:10;-20107.84;;;22.55;100.00
7058;BME280;3570;43.080;25.628;2022-07-25T01:44:54;-20123.78;;;23.10;100.00
7058;BME280;3570;43.080;25.628;2022-07-25T01:47:38;-20138.81;;;23.63;100.00
7058;BME280;3570;43.080;25.628;2022-07-25T01:50:23;-20144.28;;;23.82;100.00
7058;BME280;3570;43.080;25.628;2022-07-25T01:53:08;-20146.47;;;23.89;100.00
7058;BME280;3570;43.080;25.628;2022-07-25T01:55:51;-20149.22;;;23.99;100.00
7058;BME280;3570;43.080;25.628;2022-07-25T01:58:35;-20152.69;;;24.11;100.00
7058;BME280;3570;43.080;25.628;2022-07-25T02:01:19;-20161.78;;;24.43;100.00
7058;BME280;3570;43.080;25.628;2022-07-25T02:04:03;-20162.94;;;24.47;100.00
7058;BME280;3570;43.080;25.628;2022-07-25T02:06:48;-20166.81;;;24.60;100.00
7058;BME280;3570;43.080;25.628;2022-07-25T02:09:32;-20170.28;;;24.72;100.00
7058;BME280;3570;43.080;25.628;2022-07-25T02:12:16;-20174.63;;;24.87;100.00
7058;BME280;3570;43.080;25.628;2022-07-25T02:14:59;-20170.72;;;24.74;100.00
7058;BME280;3570;43.080;25.628;2022-07-25T02:17:43;-20167.13;;;24.61;100.00
7058;BME280;3570;43.080;25.628;2022-07-25T02:20:27;-20168.84;;;24.67;100.00
7058;BME280;3570;43.080;25.628;2022-07-25T02:23:11;-20167.25;;;24.62;100.00
7058;BME280;3570;43.080;25.628;2022-07-25T02:25:55;-20161.06;;;24.40;100.00
7058;BME280;3570;43.080;25.628;2022-07-25T02:28:40;-20162.94;;;24.47;100.00
7058;BME280;3570;43.080;25.628;2022-07-25T02:31:24;-20166.25;;;24.58;100.00
7058;BME280;3570;43.080;25.628;2022-07-25T02:34:08;-20165.09;;;24.54;100.00
7058;BME280;3570;43.080;25.628;2022-07-25T02:36:52;-20162.22;;;24.44;100.00
7058;BME280;3570;43.080;25.628;2022-07-25T02:39:36;-20160.31;;;24.38;100.00
7058;BME280;3570;43.080;25.628;2022-07-25T02:42:20;-20157.28;;;24.27;100.00
7058;BME280;3570;43.080;25.628;2022-07-25T02:45:04;-20150.78;;;24.04;100.00
7058;BME280;3570;43.080;25.628;2022-07-25T02:47:49;-20150.06;;;24.02;100.00
7058;BME280;3570;43.080;25.628;2022-07-25T02:50:34;-20154.84;;;24.18;100.00
7058;BME280;3570;43.080;25.628;2022-07-25T02:53:18;-20158.59;;;24.32;100.00
7058;BME280;3570;43.080;25.628;2022-07-25T02:56:01;-20155.72;;;24.21;100.00
7058;BME280;3570;43.080;25.628;2022-07-25T02:58:45;-20150.94;;;24.05;100.00
7058;BME280;3570;43.080;25.628;2022-07-25T03:01:29;-20152.81;;;24.11;100.00
7058;BME280;3570;43.080;25.628;2022-07-25T03:04:13;-20154.41;;;24.17;100.00
7058;BME280;3570;43.080;25.628;2022-07-25T03:06:57;-20155.13;;;24.19;100.00
7058;BME280;3570;43.080;25.628;2022-07-25T03:09:41;-20157.00;;;24.26;100.00
7058;BME280;3570;43.080;25.628;2022-07-25T03:12:25;-20158.88;;;24.33;100.00
7058;BME280;3570;43.080;25.628;2022-07-25T03:15:11;-20156.44;;;24.24;100.00
7058;BME280;3570;43.080;25.628;2022-07-25T03:17:55;-20155.84;;;24.22;100.00
7058;BME280;3570;43.080;25.628;2022-07-25T03:20:39;-20155.56;;;24.21;100.00
7058;BME280;3570;43.080;25.628;2022-07-25T03:23:23;-20158.88;;;24.33;100.00
7058;BME280;3570;43.080;25.628;2022-07-25T03:26:09;-20159.19;;;24.34;100.00
7058;BME280;3570;43.080;25.628;2022-07-25T03:28:53;-20162.50;;;24.45;100.00
7058;BME280;3570;43.080;25.628;2022-07-25T03:31:37;-20167.13;;;24.61;100.00
7058;BME280;3570;43.080;25.628;2022-07-25T03:34:21;-20164.81;;;24.53;100.00
7058;BME280;3570;43.080;25.628;2022-07-25T03:37:05;-20169.00;;;24.68;100.00
7058;BME280;3570;43.080;25.628;2022-07-25T03:39:49;-20169.44;;;24.69;100.00
7058;BME280;3570;43.080;25.628;2022-07-25T03:42:33;-20174.63;;;24.87;100.00
7058;BME280;3570;43.080;25.628;2022-07-25T03:45:18;-20172.59;;;24.80;100.00
7058;BME280;3570;43.080;25.628;2022-07-25T03:48:02;-20176.94;;;24.95;100.00
7058;BME280;3570;43.080;25.628;2022-07-25T03:50:47;-20169.44;;;24.69;100.00
7058;BME280;3570;43.080;25.628;2022-07-25T03:53:31;-20163.34;;;24.48;100.00
7058;BME280;3570;43.080;25.628;2022-07-25T03:56:16;-20172.75;;;24.81;100.00
7058;BME280;3570;43.080;25.628;2022-07-25T03:59:00;-20177.22;;;24.96;100.00
7058;BME280;3570;43.080;25.628;2022-07-25T04:01:47;-20178.81;;;25.02;100.00
7058;BME280;3570;43.080;25.628;2022-07-25T04:04:31;-20185.88;;;25.27;100.00
7058;BME280;3570;43.080;25.628;2022-07-25T04:07:16;-20180.09;;;25.06;100.00
7058;BME280;3570;43.080;25.628;2022-07-25T04:10:01;-20181.25;;;25.10;100.00
7058;BME280;3570;43.080;25.628;2022-07-25T04:12:45;-20179.25;;;25.03;100.00
7058;BME280;3570;43.080;25.628;2022-07-25T04:15:29;-20186.75;;;25.30;100.00
7058;BME280;3570;43.080;25.628;2022-07-25T04:18:13;-20191.34;;;25.46;100.00
7058;BME280;3570;43.080;25.628;2022-07-25T04:20:57;-20196.84;;;25.65;100.00
7058;BME280;3570;43.080;25.628;2022-07-25T04:23:55;-20189.91;;;25.41;100.00
7058;BME280;3570;43.080;25.628;2022-07-25T04:26:39;-20194.53;;;25.57;100.00
7058;BME280;3570;43.080;25.628;2022-07-25T04:29:23;-20185.00;;;25.24;100.00
7058;BME280;3570;43.080;25.628;2022-07-25T04:32:07;-20193.38;;;25.53;100.00
7058;BME280;3570;43.080;25.628;2022-07-25T04:34:51;-20196.25;;;25.63;100.00
7058;BME280;3570;43.080;25.628;2022-07-25T04:37:38;-20193.66;;;25.54;100.00
7058;BME280;3570;43.080;25.628;2022-07-25T04:40:22;-20191.06;;;25.45;100.00
7058;BME280;3570;43.080;25.628;2022-07-25T04:43:06;-20194.97;;;25.58;100.00
7058;BME280;3570;43.080;25.628;2022-07-25T04:45:51;-20196.69;;;25.64;100.00
7058;BME280;3570;43.080;25.628;2022-07-25T04:48:35;-20196.25;;;25.63;100.00
7058;BME280;3570;43.080;25.628;2022-07-25T04:51:19;-20199.44;;;25.74;100.00
7058;BME280;3570;43.080;25.628;2022-07-25T04:54:04;-20197.56;;;25.67;100.00
7058;BME280;3570;43.080;25.628;2022-07-25T04:56:48;-20203.19;;;25.87;100.00
7058;BME280;3570;43.080;25.628;2022-07-25T04:59:32;-20203.19;;;25.87;100.00
7058;BME280;3570;43.080;25.628;2022-07-25T05:02:16;-20199.88;;;25.75;100.00
7058;BME280;3570;43.080;25.628;2022-07-25T05:05:01;-20203.19;;;25.87;100.00
7058;BME280;3570;43.080;25.628;2022-07-25T05:07:45;-20203.19;;;25.87;100.00
7058;BME280;3570;43.080;25.628;2022-07-25T05:10:29;-20202.03;;;25.83;100.00
7058;BME280;3570;43.080;25.628;2022-07-25T05:13:14;-20204.78;;;25.92;100.00
7058;BME280;3570;43.080;25.628;2022-07-25T05:15:59;-20201.47;;;25.81;100.00
7058;BME280;3570;43.080;25.628;2022-07-25T05:18:43;-20206.22;;;25.97;100.00
7058;BME280;3570;43.080;25.628;2022-07-25T05:21:27;-20214.00;;;26.25;100.00
7058;BME280;3570;43.080;25.628;2022-07-25T05:24:10;-20210.25;;;26.12;100.00
7058;BME280;3570;43.080;25.628;2022-07-25T05:26:55;-20207.94;;;26.03;100.00
7058;BME280;3570;43.080;25.628;2022-07-25T05:29:39;-20208.38;;;26.05;100.00
7058;BME280;3570;43.080;25.628;2022-07-25T05:32:23;-20207.22;;;26.01;100.00
7058;BME280;3570;43.080;25.628;2022-07-25T05:35:08;-20201.88;;;25.82;100.00
7058;BME280;3570;43.080;25.628;2022-07-25T05:37:52;-20207.94;;;26.03;100.00
7058;BME280;3570;43.080;25.628;2022-07-25T05:40:36;-20212.41;;;26.19;100.00
7058;BME280;3570;43.080;25.628;2022-07-25T05:43:20;-20218.03;;;26.39;100.00
7058;BME280;3570;43.080;25.628;2022-07-25T05:46:04;-20220.50;;;26.47;100.00
7058;BME280;3570;43.080;25.628;2022-07-25T05:48:48;-20225.81;;;26.66;100.00
7058;BME280;3570;43.080;25.628;2022-07-25T05:51:32;-20221.94;;;26.52;100.00
7058;BME280;3570;43.080;25.628;2022-07-25T05:54:16;-20214.28;;;26.26;100.00
7058;BME280;3570;43.080;25.628;2022-07-25T05:57:00;-20215.44;;;26.30;100.00
7058;BME280;3570;43.080;25.628;2022-07-25T05:59:45;-20216.44;;;26.33;100.00
7058;BME280;3570;43.080;25.628;2022-07-25T06:02:29;-20214.16;;;26.25;100.00
7058;BME280;3570;43.080;25.628;2022-07-25T06:05:13;-20215.72;;;26.31;100.00
7058;BME280;3570;43.080;25.628;2022-07-25T06:07:57;-20218.03;;;26.39;100.00
7058;BME280;3570;43.080;25.628;2022-07-25T06:10:41;-20217.91;;;26.38;100.00
7058;BME280;3570;43.080;25.628;2022-07-25T06:13:25;-20204.63;;;25.92;100.00
7058;BME280;3570;43.080;25.628;2022-07-25T06:16:09;-20207.50;;;26.02;100.00
7058;BME280;3570;43.080;25.628;2022-07-25T06:18:53;-20208.97;;;26.07;100.00
7058;BME280;3570;43.080;25.628;2022-07-25T06:21:37;-20222.78;;;26.55;100.00
7058;BME280;3570;43.080;25.628;2022-07-25T06:24:21;-20224.22;;;26.60;100.00
7058;BME280;3570;43.080;25.628;2022-07-25T06:27:06;-20237.19;;;27.06;100.00
7058;BME280;3570;43.080;25.628;2022-07-25T06:29:51;-20241.81;;;27.22;100.00
7058;BME280;3570;43.080;25.628;2022-07-25T06:32:35;-20248.16;;;27.44;100.00
7058;BME280;3570;43.080;25.628;2022-07-25T06:35:19;-20237.47;;;27.07;100.00
7058;BME280;3570;43.080;25.628;2022-07-25T06:38:03;-20229.13;;;26.77;100.00
7058;BME280;3570;43.080;25.628;2022-07-25T06:40:48;-20234.91;;;26.97;100.00
7058;BME280;3570;43.080;25.628;2022-07-25T06:43:32;-20251.88;;;27.57;100.00
7058;BME280;3570;43.080;25.628;2022-07-25T06:46:16;-20256.22;;;27.72;100.00
7058;BME280;3570;43.080;25.628;2022-07-25T06:49:00;-20265.41;;;28.04;100.00
7058;BME280;3570;43.080;25.628;2022-07-25T06:51:44;-20251.31;;;27.55;100.00
7058;BME280;3570;43.080;25.628;2022-07-25T06:54:28;-20266.13;;;28.07;100.00
7058;BME280;3570;43.080;25.628;2022-07-25T06:57:12;-20271.31;;;28.25;100.00
7058;BME280;3570;43.080;25.628;2022-07-25T06:59:56;-20277.06;;;28.45;100.00
7058;BME280;3570;43.080;25.628;2022-07-25T07:05:35;-20278.78;;;28.51;100.00
7058;BME280;3570;43.080;25.628;2022-07-25T07:08:19;-20279.09;;;28.52;100.00
7058;BME280;3570;43.080;25.628;2022-07-25T07:11:04;-20292.44;;;28.99;100.00
7058;BME280;3570;43.080;25.628;2022-07-25T07:13:48;-20287.13;;;28.80;100.00
7058;BME280;3570;43.080;25.628;2022-07-25T07:16:32;-20281.38;;;28.60;100.00
7058;BME280;3570;43.080;25.628;2022-07-25T07:19:16;-20263.69;;;27.98;100.00
7058;BME280;3570;43.080;25.628;2022-07-25T07:22:00;-20276.06;;;28.41;100.00
7058;BME280;3570;43.080;25.628;2022-07-25T07:24:44;-20272.47;;;28.29;100.00
7058;BME280;3570;43.080;25.628;2022-07-25T07:27:28;-20280.66;;;28.57;100.00
7058;BME280;3570;43.080;25.628;2022-07-25T07:30:12;-20292.31;;;28.98;100.00
7058;BME280;3570;43.080;25.628;2022-07-25T07:32:59;-20297.63;;;29.17;100.00
7058;BME280;3570;43.080;25.628;2022-07-25T07:35:43;-20299.34;;;29.23;100.00
7058;BME280;3570;43.080;25.628;2022-07-25T07:38:27;-20291.00;;;28.94;100.00
7058;BME280;3570;43.080;25.628;2022-07-25T07:41:11;-20293.47;;;29.02;100.00
7058;BME280;3570;43.080;25.628;2022-07-25T07:43:56;-20291.31;;;28.95;100.00
7058;BME280;3570;43.080;25.628;2022-07-25T07:46:40;-20296.47;;;29.13;100.00
7058;BME280;3570;43.080;25.628;2022-07-25T07:49:24;-20302.81;;;29.35;100.00
7058;BME280;3570;43.080;25.628;2022-07-25T07:52:08;-20310.84;;;29.63;100.00
7058;BME280;3570;43.080;25.628;2022-07-25T07:54:52;-20313.44;;;29.72;100.00
7058;BME280;3570;43.080;25.628;2022-07-25T07:57:55;-20327.50;;;30.21;100.00
7058;BME280;3570;43.080;25.628;2022-07-25T08:00:40;-20329.22;;;30.27;80.91
7058;BME280;3570;43.080;25.628;2022-07-25T08:03:25;-20325.19;;;30.13;79.02
7058;BME280;3570;43.080;25.628;2022-07-25T08:06:09;-20321.03;;;29.99;79.74
7058;BME280;3570;43.080;25.628;2022-07-25T08:08:53;-20325.78;;;30.15;79.69
7058;BME280;3570;43.080;25.628;2022-07-25T08:11:37;-20332.69;;;30.39;77.63
7058;BME280;3570;43.080;25.628;2022-07-25T08:14:21;-20338.41;;;30.59;77.15
7058;BME280;3570;43.080;25.628;2022-07-25T08:17:06;-20348.59;;;30.95;75.12
7058;BME280;3570;43.080;25.628;2022-07-25T08:19:50;-20356.34;;;31.22;73.72
7058;BME280;3570;43.080;25.628;2022-07-25T08:22:43;-20358.06;;;31.28;72.91
7058;BME280;3570;43.080;25.628;2022-07-25T08:25:27;-20361.94;;;31.42;72.84
7058;BME280;3570;43.080;25.628;2022-07-25T08:28:12;-20357.06;;;31.25;74.22
7058;BME280;3570;43.080;25.628;2022-07-25T08:30:57;-20362.94;;;31.45;73.38
7058;BME280;3570;43.080;25.628;2022-07-25T08:33:41;-20363.94;;;31.49;72.52
7058;BME280;3570;43.080;25.628;2022-07-25T08:36:26;-20360.66;;;31.37;71.86
7058;BME280;3570;43.080;25.628;2022-07-25T08:39:10;-20357.19;;;31.25;74.23
7058;BME280;3570;43.080;25.628;2022-07-25T08:41:54;-20369.97;;;31.70;73.17
7058;BME280;3570;43.080;25.628;2022-07-25T08:44:41;-20375.56;;;31.90;71.46
7058;BME280;3570;43.080;25.628;2022-07-25T08:47:29;-20377.84;;;31.98;70.34
7058;BME280;3570;43.080;25.628;2022-07-25T08:50:16;-20394.03;;;32.55;66.30
7058;BME280;3570;43.080;25.628;2022-07-25T08:53:00;-20402.06;;;32.83;66.33
7058;BME280;3570;43.080;25.628;2022-07-25T08:55:46;-20400.63;;;32.78;64.28
7058;BME280;3570;43.080;25.628;2022-07-25T08:58:30;-20384.72;;;32.22;65.26
7058;BME280;3570;43.080;25.628;2022-07-25T09:01:14;-20377.00;;;31.95;66.74
7058;BME280;3570;43.080;25.628;2022-07-25T09:03:58;-20396.03;;;32.62;63.96
7058;BME280;3570;43.080;25.628;2022-07-25T09:06:50;-20417.06;;;33.36;60.61
7058;BME280;3570;43.080;25.628;2022-07-25T09:09:36;-20422.94;;;33.56;59.73
7058;BME280;3570;43.080;25.628;2022-07-25T09:12:26;-20417.50;;;33.37;58.95
7058;BME280;3570;43.080;25.628;2022-07-25T09:15:26;-20427.81;;;33.73;57.34
7058;BME280;3570;43.080;25.628;2022-07-25T09:18:11;-20422.66;;;33.55;57.15
7058;BME280;3570;43.080;25.628;2022-07-25T09:20:58;-20429.25;;;33.78;56.82
7058;BME280;3570;43.080;25.628;2022-07-25T09:23:43;-20434.97;;;33.98;56.03
7058;BME280;3570;43.080;25.628;2022-07-25T09:26:27;-20430.09;;;33.81;56.62
7058;BME280;3570;43.080;25.628;2022-07-25T09:29:24;-20431.25;;;33.85;56.54
7058;BME280;3570;43.080;25.628;2022-07-25T09:32:19;-20420.50;;;33.48;55.60
7058;BME280;3570;43.080;25.628;2022-07-25T09:35:04;-20456.81;;;34.75;53.99
7058;BME280;3570;43.080;25.628;2022-07-25T09:37:48;-20483.53;;;35.69;49.32
7058;BME280;3570;43.080;25.628;2022-07-25T09:40:32;-20488.38;;;35.86;48.53
7058;BME280;3570;43.080;25.628;2022-07-25T09:43:16;-20465.81;;;35.07;47.66
7058;BME280;3570;43.080;25.628;2022-07-25T09:46:01;-20445.69;;;34.36;48.56
7058;BME280;3570;43.080;25.628;2022-07-25T09:48:58;-20485.78;;;35.77;48.25
7058;BME280;3570;43.080;25.628;2022-07-25T09:51:42;-20518.59;;;36.93;45.66
7058;BME280;3570;43.080;25.628;2022-07-25T09:54:27;-20538.25;;;37.62;43.24
7058;BME280;3570;43.080;25.628;2022-07-25T09:57:13;-20545.22;;;37.87;42.09
7058;BME280;3570;43.080;25.628;2022-07-25T09:59:59;-20517.44;;;36.89;41.99
7058;BME280;3570;43.080;25.628;2022-07-25T10:05:55;-20490.66;;;35.94;43.63
7058;BME280;3570;43.080;25.628;2022-07-25T10:08:43;-20517.75;;;36.90;40.38
7058;BME280;3570;43.080;25.628;2022-07-25T10:11:27;-20543.38;;;37.81;40.94
7058;BME280;3570;43.080;25.628;2022-07-25T10:14:13;-20538.53;;;37.63;39.92
7058;BME280;3570;43.080;25.628;2022-07-25T10:16:57;-20540.81;;;37.71;39.82
7058;BME280;3570;43.080;25.628;2022-07-25T10:19:43;-20573.38;;;38.87;38.63
7058;BME280;3570;43.080;25.628;2022-07-25T10:25:25;-20553.31;;;38.16;40.04
7058;BME280;3570;43.080;25.628;2022-07-25T10:28:09;-20567.56;;;38.66;38.84
7058;BME280;3570;43.080;25.628;2022-07-25T10:30:58;-20579.22;;;39.07;38.90
7058;BME280;3570;43.080;25.628;2022-07-25T10:33:42;-20585.19;;;39.28;38.23
7058;BME280;3570;43.080;25.628;2022-07-25T10:36:49;-20603.22;;;39.92;36.99
7058;BME280;3570;43.080;25.628;2022-07-25T10:39:39;-20609.75;;;40.15;35.47
7058;BME280;3570;43.080;25.628;2022-07-25T10:42:24;-20601.22;;;39.85;35.13
7058;BME280;3570;43.080;25.628;2022-07-25T10:45:16;-20580.06;;;39.10;36.92
7058;BME280;3570;43.080;25.628;2022-07-25T10:48:05;-20604.22;;;39.96;36.38
7058;BME280;3570;43.080;25.628;2022-07-25T10:51:07;-20573.38;;;38.87;36.85
7058;BME280;3570;43.080;25.628;2022-07-25T10:53:55;-20594.69;;;39.62;35.53
7058;BME280;3570;43.080;25.628;2022-07-25T10:56:50;-20569.84;;;38.74;36.25
7058;BME280;3570;43.080;25.628;2022-07-25T10:59:37;-20593.00;;;39.56;34.94
7058;BME280;3570;43.080;25.628;2022-07-25T11:02:22;-20591.00;;;39.49;35.18
7058;BME280;3570;43.080;25.628;2022-07-25T11:05:07;-20608.47;;;40.11;34.75
7058;BME280;3570;43.080;25.628;2022-07-25T11:07:52;-20599.66;;;39.80;36.00
7058;BME280;3570;43.080;25.628;2022-07-25T11:10:37;-20602.50;;;39.90;35.60
7058;BME280;3570;43.080;25.628;2022-07-25T11:13:21;-20631.00;;;40.91;34.42
7058;BME280;3570;43.080;25.628;2022-07-25T11:16:05;-20655.66;;;41.78;32.72
7058;BME280;3570;43.080;25.628;2022-07-25T11:18:49;-20659.78;;;41.93;32.38
7058;BME280;3570;43.080;25.628;2022-07-25T11:21:43;-20678.03;;;42.58;31.36
7058;BME280;3570;43.080;25.628;2022-07-25T11:24:43;-20672.81;;;42.39;31.14
7058;BME280;3570;43.080;25.628;2022-07-25T11:27:28;-20676.19;;;42.51;31.49
7058;BME280;3570;43.080;25.628;2022-07-25T11:30:15;-20691.75;;;43.07;30.99
7058;BME280;3570;43.080;25.628;2022-07-25T11:33:00;-20672.38;;;42.38;30.69
7058;BME280;3570;43.080;25.628;2022-07-25T11:35:44;-20682.28;;;42.73;30.62
7058;BME280;3570;43.080;25.628;2022-07-25T11:38:29;-20701.09;;;43.40;30.10
7058;BME280;3570;43.080;25.628;2022-07-25T11:41:13;-20697.13;;;43.26;30.09
7058;BME280;3570;43.080;25.628;2022-07-25T11:43:58;-20694.00;;;43.15;29.65
7058;BME280;3570;43.080;25.628;2022-07-25T11:46:42;-20713.78;;;43.85;28.54
7058;BME280;3570;43.080;25.628;2022-07-25T11:49:27;-20683.25;;;42.76;29.90
7058;BME280;3570;43.080;25.628;2022-07-25T11:52:22;-20684.81;;;42.82;30.05
7058;BME280;3570;43.080;25.628;2022-07-25T11:55:12;-20708.44;;;43.66;29.33
7058;BME280;3570;43.080;25.628;2022-07-25T11:57:59;-20691.75;;;43.07;29.92
7058;BME280;3570;43.080;25.628;2022-07-25T12:00:47;-20700.81;;;43.39;29.05
7058;BME280;3570;43.080;25.628;2022-07-25T12:03:37;-20694.16;;;43.15;28.85
7058;BME280;3570;43.080;25.628;2022-07-25T12:06:28;-20665.59;;;42.13;29.92
7058;BME280;3570;43.080;25.628;2022-07-25T12:09:19;-20612.16;;;40.24;32.42
7058;BME280;3570;43.080;25.628;2022-07-25T12:12:04;-20540.81;;;37.71;37.05
7058;BME280;3570;43.080;25.628;2022-07-25T12:14:48;-20525.72;;;37.18;38.53
7058;BME280;3570;43.080;25.628;2022-07-25T12:17:32;-20511.91;;;36.69;40.12
7058;BME280;3570;43.080;25.628;2022-07-25T12:23:06;-20602.78;;;39.91;36.25
7058;BME280;3570;43.080;25.628;2022-07-25T12:25:52;-20629.19;;;40.84;33.12
7058;BME280;3570;43.080;25.628;2022-07-25T12:28:36;-20668.97;;;42.26;31.50
7058;BME280;3570;43.080;25.628;2022-07-25T12:31:20;-20705.88;;;43.57;29.33
7058;BME280;3570;43.080;25.628;2022-07-25T12:34:06;-20710.81;;;43.74;28.43
7058;BME280;3570;43.080;25.628;2022-07-25T12:36:50;-20703.34;;;43.48;28.88
7058;BME280;3570;43.080;25.628;2022-07-25T12:39:35;-20723.69;;;44.20;28.46
7058;BME280;3570;43.080;25.628;2022-07-25T12:42:19;-20731.88;;;44.49;28.23
7058;BME280;3570;43.080;25.628;2022-07-25T12:45:04;-20710.13;;;43.72;28.39
7058;BME280;3570;43.080;25.628;2022-07-25T12:47:48;-20690.47;;;43.02;29.23
7058;BME280;3570;43.080;25.628;2022-07-25T12:50:32;-20729.47;;;44.41;28.33
7058;BME280;3570;43.080;25.628;2022-07-25T12:53:16;-20696.28;;;43.23;29.45
7058;BME280;3570;43.080;25.628;2022-07-25T12:56:00;-20636.97;;;41.12;32.46
7058;BME280;3570;43.080;25.628;2022-07-25T12:58:44;-20611.44;;;40.21;33.61
7058;BME280;3570;43.080;25.628;2022-07-25T13:01:28;-20626.63;;;40.75;33.50
7058;BME280;3570;43.080;25.628;2022-07-25T13:04:12;-20654.25;;;41.73;31.70
7058;BME280;3570;43.080;25.628;2022-07-25T13:06:57;-20672.66;;;42.39;30.57
7058;BME280;3570;43.080;25.628;2022-07-25T13:09:41;-20688.22;;;42.94;29.53
7058;BME280;3570;43.080;25.628;2022-07-25T13:12:25;-20695.56;;;43.20;28.79
7058;BME280;3570;43.080;25.628;2022-07-25T13:15:09;-20648.59;;;41.53;30.99
7058;BME280;3570;43.080;25.628;2022-07-25T13:17:54;-20649.28;;;41.56;31.16
7058;BME280;3570;43.080;25.628;2022-07-25T13:20:37;-20671.53;;;42.35;29.49
7058;BME280;3570;43.080;25.628;2022-07-25T13:23:21;-20714.22;;;43.86;27.78
7058;BME280;3570;43.080;25.628;2022-07-25T13:26:06;-20734.69;;;44.59;26.98
7058;BME280;3570;43.080;25.628;2022-07-25T13:28:50;-20757.09;;;45.39;26.61
7058;BME280;3570;43.080;25.628;2022-07-25T13:31:34;-20746.53;;;45.02;26.28
7058;BME280;3570;43.080;25.628;2022-07-25T13:34:18;-20727.91;;;44.35;27.01
7058;BME280;3570;43.080;25.628;2022-07-25T13:37:02;-20728.75;;;44.38;27.24
7058;BME280;3570;43.080;25.628;2022-07-25T13:39:47;-20729.75;;;44.42;26.92
7058;BME280;3570;43.080;25.628;2022-07-25T13:42:31;-20715.78;;;43.92;27.50
7058;BME280;3570;43.080;25.628;2022-07-25T13:45:16;-20733.56;;;44.55;26.89
7058;BME280;3570;43.080;25.628;2022-07-25T13:48:00;-20735.81;;;44.63;27.12
7058;BME280;3570;43.080;25.628;2022-07-25T13:50:44;-20685.69;;;42.85;28.05
7058;BME280;3570;43.080;25.628;2022-07-25T13:53:28;-20672.50;;;42.38;29.40
7058;BME280;3570;43.080;25.628;2022-07-25T13:56:12;-20711.97;;;43.78;27.51
7058;BME280;3570;43.080;25.628;2022-07-25T13:58:57;-20733.56;;;44.55;26.50
7058;BME280;3570;43.080;25.628;2022-07-25T14:01:41;-20742.59;;;44.88;26.41
7058;BME280;3570;43.080;25.628;2022-07-25T14:04:26;-20751.34;;;45.19;25.28
7058;BME280;3570;43.080;25.628;2022-07-25T14:07:10;-20753.59;;;45.27;25.74
7058;BME280;3570;43.080;25.628;2022-07-25T14:09:55;-20764.16;;;45.65;25.07
7058;BME280;3570;43.080;25.628;2022-07-25T14:12:39;-20795.41;;;46.76;24.41
7058;BME280;3570;43.080;25.628;2022-07-25T14:15:23;-20751.47;;;45.19;25.80
7058;BME280;3570;43.080;25.628;2022-07-25T14:18:07;-20701.94;;;43.43;27.74
7058;BME280;3570;43.080;25.628;2022-07-25T14:20:52;-20640.38;;;41.24;30.83
7058;BME280;3570;43.080;25.628;2022-07-25T14:23:38;-20614.28;;;40.31;32.52
7058;BME280;3570;43.080;25.628;2022-07-25T14:26:22;-20643.63;;;41.36;30.64
7058;BME280;3570;43.080;25.628;2022-07-25T14:29:06;-20700.53;;;43.38;28.52
7058;BME280;3570;43.080;25.628;2022-07-25T14:31:53;-20727.91;;;44.35;26.73
7058;BME280;3570;43.080;25.628;2022-07-25T14:34:37;-20740.47;;;44.80;25.94
7058;BME280;3570;43.080;25.628;2022-07-25T14:37:23;-20740.75;;;44.81;25.94
7058;BME280;3570;43.080;25.628;2022-07-25T14:40:07;-20712.53;;;43.80;27.08